createdAt,value
2019-01-12T00:00:48.050Z,-3.1
2019-01-12T00:01:38.383Z,-3.1
2019-01-12T00:02:27.873Z,-3.2
2019-01-12T00:03:18.486Z,-3.2
2019-01-12T00:04:08.266Z,-3.2
2019-01-12T00:04:58.619Z,-3.2
2019-01-12T00:05:48.657Z,-3.2
2019-01-12T00:06:38.713Z,-3.2
2019-01-12T00:07:28.492Z,-3.2
2019-01-12T00:08:18.593Z,-3.2
2019-01-12T00:09:08.618Z,-3.2
2019-01-12T00:09:58.940Z,-3.2
2019-01-12T00:10:48.720Z,-3.2
2019-01-12T00:11:38.777Z,-3.2
2019-01-12T00:12:28.835Z,-3.2
2019-01-12T00:13:19.175Z,-3.2
2019-01-12T00:14:09.225Z,-3.2
2019-01-12T00:14:59.020Z,-3.2
2019-01-12T00:15:49.067Z,-3.2
2019-01-12T00:34:11.279Z,-3.3
2019-01-12T00:35:01.271Z,-3.3
2019-01-12T00:35:51.341Z,-3.3
2019-01-12T00:36:41.391Z,-3.3
2019-01-12T00:37:31.440Z,-3.3
2019-01-12T00:38:21.496Z,-3.3
2019-01-12T00:39:11.318Z,-3.3
2019-01-12T00:40:01.614Z,-3.3
2019-01-12T00:40:51.659Z,-3.3
2019-01-12T00:41:41.158Z,-3.3
2019-01-12T00:42:31.774Z,-3.3
2019-01-12T00:43:21.868Z,-3.3
2019-01-12T00:44:11.336Z,-3.3
2019-01-12T00:45:01.949Z,-3.3
2019-01-12T00:45:51.735Z,-3.3
2019-01-12T00:46:41.776Z,-3.3
2019-01-12T00:47:33.739Z,-3.3
2019-01-12T00:48:21.393Z,-3.3
2019-01-12T00:49:12.223Z,-3.3
2019-01-12T00:50:02.278Z,-3.4
2019-01-12T00:50:52.338Z,-3.4
2019-01-12T00:51:42.155Z,-3.4
2019-01-12T00:52:32.441Z,-3.4
2019-01-12T00:53:22.227Z,-3.4
2019-01-12T00:54:12.280Z,-3.4
2019-01-12T00:55:02.355Z,-3.4
2019-01-12T00:55:52.678Z,-3.4
2019-01-12T00:56:42.457Z,-3.4
2019-01-12T00:57:32.785Z,-3.4
2019-01-12T00:58:22.842Z,-3.5
2019-01-12T00:59:12.897Z,-3.5
2019-01-12T01:00:02.970Z,-3.5
2019-01-12T01:00:53.020Z,-3.5
2019-01-12T01:01:43.075Z,-3.5
2019-01-12T01:02:33.127Z,-3.6
2019-01-12T01:03:22.900Z,-3.5
2019-01-12T01:04:13.237Z,-3.6
2019-01-12T01:05:03.059Z,-3.6
2019-01-12T01:05:53.362Z,-3.6
2019-01-12T01:06:43.411Z,-3.6
2019-01-12T01:07:33.472Z,-3.6
2019-01-12T01:08:23.237Z,-3.6
2019-01-12T01:09:13.302Z,-3.6
2019-01-12T01:10:03.466Z,-3.6
2019-01-12T01:10:53.159Z,-3.6
2019-01-12T01:11:43.487Z,-3.7
2019-01-12T01:12:32.983Z,-3.7
2019-01-12T01:13:23.592Z,-3.7
2019-01-12T01:14:13.926Z,-3.7
2019-01-12T01:15:04.037Z,-3.7
2019-01-12T01:20:04.047Z,-3.8
2019-01-12T01:20:54.096Z,-3.8
2019-01-12T01:21:43.876Z,-3.8
2019-01-12T01:22:34.489Z,-3.8
2019-01-12T01:23:24.271Z,-3.8
2019-01-12T01:24:14.593Z,-3.9
2019-01-12T01:25:04.443Z,-3.9
2019-01-12T01:25:54.442Z,-3.9
2019-01-12T01:26:44.766Z,-3.9
2019-01-12T01:27:34.554Z,-3.9
2019-01-12T01:28:24.881Z,-3.9
2019-01-12T01:29:14.663Z,-3.9
2019-01-12T01:30:05.001Z,-3.9
2019-01-12T01:30:54.833Z,-4
2019-01-12T01:31:45.113Z,-4
2019-01-12T01:32:34.953Z,-4
2019-01-12T01:33:29.657Z,-4.1
2019-01-12T01:34:15.273Z,-4.1
2019-01-12T01:35:05.113Z,-4.1
2019-01-12T01:35:55.387Z,-4.1
2019-01-12T01:36:45.460Z,-4.1
2019-01-12T01:37:35.500Z,-4.1
2019-01-12T01:38:25.557Z,-4.1
2019-01-12T01:39:15.342Z,-4.2
2019-01-12T01:40:05.115Z,-4.2
2019-01-12T01:40:55.721Z,-4.2
2019-01-12T01:41:45.305Z,-4.2
2019-01-12T01:42:35.367Z,-4.2
2019-01-12T01:43:25.423Z,-4.3
2019-01-12T01:44:14.940Z,-4.3
2019-01-12T01:45:05.589Z,-4.3
2019-01-12T01:45:55.640Z,-4.3
2019-01-12T01:46:45.569Z,-4.3
2019-01-12T01:47:35.902Z,-4.3
2019-01-12T01:48:26.247Z,-4.3
2019-01-12T01:49:16.027Z,-4.3
2019-01-12T01:50:06.344Z,-4.3
2019-01-12T01:50:56.132Z,-4.3
2019-01-12T01:51:46.478Z,-4.3
2019-01-12T01:52:36.254Z,-4.3
2019-01-12T01:53:26.018Z,-4.3
2019-01-12T01:54:16.633Z,-4.3
2019-01-12T01:55:06.412Z,-4.3
2019-01-12T01:55:56.466Z,-4.3
2019-01-12T01:56:46.574Z,-4.3
2019-01-12T01:57:36.598Z,-4.3
2019-01-12T01:58:26.641Z,-4.4
2019-01-12T01:59:16.961Z,-4.4
2019-01-12T02:00:07.039Z,-4.4
2019-01-12T02:00:57.096Z,-4.4
2019-01-12T02:01:46.331Z,-4.4
2019-01-12T02:02:37.196Z,-4.4
2019-01-12T02:03:27.256Z,-4.4
2019-01-12T02:04:17.046Z,-4.4
2019-01-12T02:05:07.089Z,-4.4
2019-01-12T02:05:56.603Z,-4.4
2019-01-12T02:06:47.490Z,-4.4
2019-01-12T02:07:37.538Z,-4.5
2019-01-12T02:08:27.603Z,-4.5
2019-01-12T02:09:17.650Z,-4.5
2019-01-12T02:10:07.703Z,-4.5
2019-01-12T02:10:57.213Z,-4.6
2019-01-12T02:11:47.820Z,-4.6
2019-01-12T02:12:37.647Z,-4.6
2019-01-12T02:13:27.380Z,-4.6
2019-01-12T02:14:17.983Z,-4.6
2019-01-12T02:15:07.775Z,-4.6
2019-01-12T02:15:58.102Z,-4.6
2019-01-12T02:16:48.163Z,-4.6
2019-01-12T02:17:38.263Z,-4.6
2019-01-12T02:18:28.295Z,-4.6
2019-01-12T02:19:18.331Z,-4.6
2019-01-12T02:20:08.105Z,-4.6
2019-01-12T02:20:58.175Z,-4.6
2019-01-12T02:21:48.505Z,-4.6
2019-01-12T02:22:38.562Z,-4.6
2019-01-12T02:23:28.622Z,-4.6
2019-01-12T02:24:18.401Z,-4.6
2019-01-12T02:25:08.735Z,-4.6
2019-01-12T02:25:58.782Z,-4.6
2019-01-12T02:26:48.285Z,-4.6
2019-01-12T02:27:38.336Z,-4.6
2019-01-12T02:28:28.964Z,-4.6
2019-01-12T02:29:19.005Z,-4.6
2019-01-12T02:30:08.812Z,-4.6
2019-01-12T02:30:59.130Z,-4.6
2019-01-12T02:31:49.207Z,-4.6
2019-01-12T02:32:39.304Z,-4.6
2019-01-12T02:33:29.294Z,-4.6
2019-01-12T02:34:19.069Z,-4.6
2019-01-12T02:35:09.419Z,-4.6
2019-01-12T02:35:59.475Z,-4.6
2019-01-12T02:36:49.605Z,-4.6
2019-01-12T02:37:39.581Z,-4.6
2019-01-12T02:38:29.361Z,-4.6
2019-01-12T02:39:19.696Z,-4.6
2019-01-12T02:40:09.313Z,-4.6
2019-01-12T02:40:59.521Z,-4.6
2019-01-12T02:41:49.588Z,-4.6
2019-01-12T02:42:39.922Z,-4.6
2019-01-12T02:43:29.149Z,-4.6
2019-01-12T02:44:20.028Z,-4.6
2019-01-12T02:45:09.812Z,-4.6
2019-01-12T02:46:00.156Z,-4.6
2019-01-12T02:46:49.926Z,-4.6
2019-01-12T02:47:40.004Z,-4.6
2019-01-12T02:48:30.330Z,-4.6
2019-01-12T02:49:20.396Z,-4.6
2019-01-12T02:50:10.445Z,-4.6
2019-01-12T02:51:00.490Z,-4.6
2019-01-12T02:51:50.280Z,-4.6
2019-01-12T02:52:40.329Z,-4.6
2019-01-12T02:53:30.665Z,-4.6
2019-01-12T02:54:20.710Z,-4.6
2019-01-12T02:55:11.231Z,-4.6
2019-01-12T02:56:00.831Z,-4.6
2019-01-12T02:56:50.875Z,-4.6
2019-01-12T02:57:40.742Z,-4.6
2019-01-12T02:58:31.014Z,-4.7
2019-01-12T02:59:20.779Z,-4.6
2019-01-12T03:00:11.148Z,-4.7
2019-01-12T03:01:01.195Z,-4.7
2019-01-12T03:01:51.227Z,-4.7
2019-01-12T03:02:41.280Z,-4.7
2019-01-12T03:03:31.060Z,-4.7
2019-01-12T03:04:21.127Z,-4.7
2019-01-12T03:05:11.482Z,-4.7
2019-01-12T03:06:01.240Z,-4.7
2019-01-12T03:06:51.589Z,-4.7
2019-01-12T03:07:41.417Z,-4.7
2019-01-12T03:08:31.674Z,-4.7
2019-01-12T03:09:21.730Z,-4.7
2019-01-12T03:10:11.792Z,-4.8
2019-01-12T03:11:01.851Z,-4.7
2019-01-12T03:11:51.912Z,-4.7
2019-01-12T03:12:41.967Z,-4.8
2019-01-12T03:13:32.037Z,-4.7
2019-01-12T03:14:21.827Z,-4.8
2019-01-12T03:15:11.877Z,-4.7
2019-01-12T03:16:01.936Z,-4.8
2019-01-12T03:16:51.983Z,-4.8
2019-01-12T03:17:42.319Z,-4.8
2019-01-12T03:18:32.361Z,-4.8
2019-01-12T03:19:22.126Z,-4.8
2019-01-12T03:20:12.479Z,-4.8
2019-01-12T03:21:02.596Z,-4.8
2019-01-12T03:21:52.596Z,-4.8
2019-01-12T03:22:42.655Z,-4.8
2019-01-12T03:23:32.471Z,-4.8
2019-01-12T03:24:22.761Z,-4.8
2019-01-12T03:25:20.877Z,-4.8
2019-01-12T03:26:02.338Z,-4.8
2019-01-12T03:26:52.940Z,-4.8
2019-01-12T03:27:42.451Z,-4.8
2019-01-12T03:28:33.075Z,-4.8
2019-01-12T03:29:23.098Z,-4.8
2019-01-12T03:30:13.214Z,-4.8
2019-01-12T03:31:03.291Z,-4.8
2019-01-12T03:31:53.111Z,-4.8
2019-01-12T03:32:43.109Z,-4.8
2019-01-12T03:33:33.487Z,-4.8
2019-01-12T03:34:23.433Z,-4.8
2019-01-12T03:35:13.218Z,-4.8
2019-01-12T03:36:02.990Z,-4.8
2019-01-12T03:36:53.315Z,-4.8
2019-01-12T03:37:43.673Z,-4.8
2019-01-12T03:38:33.168Z,-4.8
2019-01-12T03:39:23.206Z,-4.9
2019-01-12T03:40:13.855Z,-4.8
2019-01-12T03:41:03.901Z,-4.8
2019-01-12T03:41:53.125Z,-4.9
2019-01-12T03:42:43.989Z,-4.9
2019-01-12T03:43:34.047Z,-4.9
2019-01-12T03:44:24.119Z,-4.9
2019-01-12T03:45:14.178Z,-4.9
2019-01-12T03:46:04.005Z,-4.9
2019-01-12T03:46:54.272Z,-4.9
2019-01-12T03:47:44.062Z,-4.9
2019-01-12T03:48:34.114Z,-4.9
2019-01-12T03:49:24.165Z,-4.9
2019-01-12T03:50:14.505Z,-4.9
2019-01-12T03:51:04.565Z,-4.9
2019-01-12T03:51:54.337Z,-4.9
2019-01-12T03:52:44.669Z,-5
2019-01-12T03:53:34.749Z,-5
2019-01-12T03:54:24.790Z,-5
2019-01-12T03:55:14.591Z,-5
2019-01-12T03:56:04.630Z,-5
2019-01-12T03:56:54.677Z,-5
2019-01-12T03:57:45.043Z,-5.1
2019-01-12T03:58:34.793Z,-5
2019-01-12T03:59:25.122Z,-5.1
2019-01-12T04:00:15.175Z,-5.1
2019-01-12T04:01:05.281Z,-5.1
2019-01-12T04:01:55.062Z,-5.1
2019-01-12T04:02:45.359Z,-5.1
2019-01-12T04:03:35.188Z,-5.1
2019-01-12T04:04:25.459Z,-5.1
2019-01-12T04:05:15.253Z,-5.1
2019-01-12T04:06:05.576Z,-5.1
2019-01-12T04:06:55.628Z,-5.1
2019-01-12T04:07:45.691Z,-5.1
2019-01-12T04:08:35.752Z,-5.1
2019-01-12T04:09:25.541Z,-5.1
2019-01-12T04:10:15.885Z,-5.1
2019-01-12T04:11:05.921Z,-5.1
2019-01-12T04:11:55.695Z,-5.1
2019-01-12T04:12:45.765Z,-5.2
2019-01-12T04:13:36.100Z,-5.2
2019-01-12T04:14:25.877Z,-5.1
2019-01-12T04:15:16.236Z,-5.1
2019-01-12T04:16:05.985Z,-5.2
2019-01-12T04:16:56.308Z,-5.2
2019-01-12T04:17:46.392Z,-5.1
2019-01-12T04:18:36.415Z,-5.2
2019-01-12T04:19:26.492Z,-5.2
2019-01-12T04:20:16.298Z,-5.2
2019-01-12T04:21:06.329Z,-5.2
2019-01-12T04:21:56.373Z,-5.2
2019-01-12T04:22:46.422Z,-5.2
2019-01-12T04:23:36.796Z,-5.2
2019-01-12T04:24:26.820Z,-5.3
2019-01-12T04:25:34.981Z,-5.2
2019-01-12T04:26:06.932Z,-5.3
2019-01-12T04:26:56.989Z,-5.2
2019-01-12T04:27:46.784Z,-5.3
2019-01-12T04:28:37.130Z,-5.3
2019-01-12T04:29:27.183Z,-5.3
2019-01-12T04:30:17.221Z,-5.2
2019-01-12T04:31:07.354Z,-5.3
2019-01-12T04:31:57.342Z,-5.3
2019-01-12T04:32:46.855Z,-5.3
2019-01-12T04:33:37.167Z,-5.2
2019-01-12T04:34:27.506Z,-5.3
2019-01-12T04:35:17.559Z,-5.3
2019-01-12T04:36:07.330Z,-5.3
2019-01-12T04:36:57.658Z,-5.3
2019-01-12T04:37:47.750Z,-5.3
2019-01-12T04:38:37.275Z,-5.3
2019-01-12T04:39:27.866Z,-5.3
2019-01-12T04:40:17.694Z,-5.3
2019-01-12T04:41:07.684Z,-5.3
2019-01-12T04:41:58.016Z,-5.3
2019-01-12T04:42:48.144Z,-5.3
2019-01-12T04:43:37.837Z,-5.3
2019-01-12T04:44:27.898Z,-5.3
2019-01-12T04:45:18.233Z,-5.3
2019-01-12T04:46:08.296Z,-5.3
2019-01-12T05:03:21.717Z,-5.2
2019-01-12T05:04:11.578Z,-5.1
2019-01-12T05:05:03.299Z,-5.1
2019-01-12T05:06:06.095Z,-5.1
2019-01-12T05:07:02.689Z,-5.1
2019-01-12T05:07:38.288Z,-5.1
2019-01-12T05:08:29.549Z,-5.1
2019-01-12T05:09:18.365Z,-5.1
2019-01-12T05:10:08.508Z,-5.1
2019-01-12T05:10:58.541Z,-5.1
2019-01-12T05:12:20.207Z,-5.1
2019-01-12T05:12:47.399Z,-5.1
2019-01-12T05:13:36.870Z,-5
2019-01-12T05:14:27.175Z,-5
2019-01-12T05:15:17.038Z,-5
2019-01-12T05:16:06.786Z,-5
2019-01-12T05:16:57.569Z,-5
2019-01-12T05:17:47.485Z,-5
2019-01-12T05:18:37.509Z,-4.9
2019-01-12T05:20:23.063Z,-4.9
2019-01-12T05:21:13.627Z,-4.9
2019-01-12T05:22:02.951Z,-4.9
2019-01-12T05:22:53.523Z,-4.9
2019-01-12T05:23:43.833Z,-4.9
2019-01-12T09:17:44.353Z,5.9
2019-01-12T09:18:34.678Z,6.1
2019-01-12T09:19:24.463Z,6.5
2019-01-12T09:20:14.838Z,6.9
2019-01-12T09:21:04.840Z,7.4
2019-01-12T09:21:54.883Z,7.9
2019-01-12T09:22:44.947Z,8.3
2019-01-12T09:23:35.003Z,8.9
2019-01-12T09:24:25.067Z,9.3
2019-01-12T09:25:15.129Z,9.8
2019-01-12T09:26:05.172Z,10.4
2019-01-12T09:26:54.952Z,10.8
2019-01-12T09:27:45.285Z,11.4
2019-01-12T09:28:35.345Z,11.9
2019-01-12T09:29:25.408Z,12.4
2019-01-12T09:30:14.927Z,12.9
2019-01-12T09:31:05.230Z,13.5
2019-01-12T09:31:55.577Z,14
2019-01-12T09:32:45.356Z,14.6
2019-01-12T09:33:35.457Z,15.1
2019-01-12T09:34:25.794Z,15.6
2019-01-12T09:35:15.802Z,16.2
2019-01-12T09:36:05.600Z,16.7
2019-01-12T09:36:55.642Z,17.2
2019-01-12T09:37:45.985Z,17.7
2019-01-12T09:38:35.743Z,18.2
2019-01-12T09:39:25.794Z,18.6
2019-01-12T09:40:16.144Z,19.2
2019-01-12T09:41:06.203Z,19.7
2019-01-12T09:41:56.260Z,20.1
2019-01-12T09:42:46.328Z,20.7
2019-01-12T09:43:36.372Z,21.2
2019-01-12T09:44:26.458Z,21.7
2019-01-12T09:45:16.482Z,22.2
2019-01-12T09:46:06.542Z,22.6
2019-01-12T09:46:56.597Z,23.2
2019-01-12T09:47:46.390Z,23.7
2019-01-12T09:48:36.488Z,24.2
2019-01-12T09:49:26.767Z,24.8
2019-01-12T09:50:16.837Z,25.1
2019-01-12T09:51:06.612Z,25.6
2019-01-12T09:51:56.949Z,26.1
2019-01-12T09:52:46.725Z,26.6
2019-01-12T09:53:37.055Z,26.9
2019-01-12T09:54:26.842Z,27.4
2019-01-12T09:55:17.187Z,27.8
2019-01-12T09:56:07.214Z,28.2
2019-01-12T09:56:57.293Z,28.6
2019-01-12T09:57:47.454Z,29.1
2019-01-12T09:58:37.397Z,29.4
2019-01-12T09:59:28.995Z,29.8
2019-01-12T10:00:16.969Z,30.3
2019-01-12T10:01:07.288Z,30.7
2019-01-12T10:01:57.768Z,31.1
2019-01-12T10:02:47.412Z,31.6
2019-01-12T10:03:37.803Z,32.1
2019-01-12T10:04:27.807Z,32.5
2019-01-12T10:05:17.571Z,33
2019-01-12T10:06:07.920Z,33.4
2019-01-12T10:06:57.704Z,33.8
2019-01-12T10:07:48.016Z,34.1
2019-01-12T10:08:38.073Z,34.4
2019-01-12T10:09:28.128Z,34.8
2019-01-12T10:10:19.701Z,35.4
2019-01-12T10:11:08.247Z,35.9
2019-01-12T10:11:58.304Z,36.4
2019-01-12T10:12:48.074Z,36.8
2019-01-12T10:13:37.858Z,37.3
2019-01-12T10:14:28.473Z,37.8
2019-01-12T10:15:18.534Z,38.3
2019-01-12T10:16:08.588Z,38.8
2019-01-12T10:16:58.637Z,39.2
2019-01-12T10:17:48.714Z,39.4
2019-01-12T10:18:38.196Z,39.6
2019-01-12T10:19:28.808Z,39.6
2019-01-12T10:20:18.595Z,39.6
2019-01-12T10:21:08.643Z,39.7
2019-01-12T10:21:58.983Z,39.8
2019-01-12T10:22:48.495Z,39.8
2019-01-12T10:23:38.578Z,39.8
2019-01-12T10:24:29.156Z,39.8
2019-01-12T10:25:19.202Z,39.9
2019-01-12T10:26:09.299Z,40.1
2019-01-12T10:27:00.405Z,40.3
2019-01-12T10:27:49.375Z,40.6
2019-01-12T10:28:39.161Z,40.8
2019-01-12T10:29:29.502Z,41.1
2019-01-12T10:30:19.550Z,41.4
2019-01-12T10:31:09.322Z,41.7
2019-01-12T10:31:59.662Z,41.9
2019-01-12T10:32:49.717Z,42.2
2019-01-12T10:33:39.830Z,42.4
2019-01-12T10:34:29.829Z,42.6
2019-01-12T10:35:19.893Z,42.8
2019-01-12T10:36:09.945Z,42.9
2019-01-12T10:36:59.741Z,43.1
2019-01-12T10:37:49.794Z,43.1
2019-01-12T10:38:39.827Z,42.9
2019-01-12T10:39:29.885Z,42.7
2019-01-12T10:40:19.685Z,42.6
2019-01-12T10:41:10.294Z,42.4
2019-01-12T10:42:00.329Z,42.3
2019-01-12T10:42:50.445Z,41.9
2019-01-12T10:43:40.457Z,41.7
2019-01-12T10:44:30.554Z,41.4
2019-01-12T10:45:20.568Z,41.3
2019-01-12T10:46:10.062Z,41.1
2019-01-12T10:47:00.407Z,40.9
2019-01-12T10:47:50.739Z,40.9
2019-01-12T10:48:40.804Z,40.9
2019-01-12T10:49:30.571Z,41.1
2019-01-12T10:50:20.380Z,41.4
2019-01-12T10:51:10.411Z,41.8
2019-01-12T10:52:01.023Z,42.2
2019-01-12T10:52:51.082Z,42.6
2019-01-12T10:55:07.096Z,43.4
2019-01-12T10:55:57.171Z,43.6
2019-01-12T10:56:47.314Z,43.9
2019-01-12T10:57:37.271Z,44
2019-01-12T10:58:27.333Z,44.1
2019-01-12T10:59:17.115Z,44
2019-01-12T11:00:07.168Z,43.8
2019-01-12T11:00:57.221Z,43.6
2019-01-12T11:01:47.550Z,43.3
2019-01-12T11:02:37.345Z,43.1
2019-01-12T11:03:27.678Z,43
2019-01-12T11:04:17.723Z,42.9
2019-01-12T11:05:07.513Z,42.8
2019-01-12T11:05:57.570Z,42.5
2019-01-12T11:06:47.902Z,42.1
2019-01-12T11:07:37.682Z,41.8
2019-01-12T11:08:27.734Z,41.6
2019-01-12T11:09:18.075Z,41.5
2019-01-12T11:10:08.130Z,41.6
2019-01-12T11:10:58.182Z,41.8
2019-01-12T11:11:48.237Z,42.1
2019-01-12T11:12:38.015Z,42.4
2019-01-12T11:13:28.352Z,42.8
2019-01-12T11:14:18.413Z,43.2
2019-01-12T11:15:09.816Z,43.5
2019-01-12T11:15:58.247Z,43.8
2019-01-12T11:16:48.587Z,44.1
2019-01-12T11:17:38.637Z,44.1
2019-01-12T11:18:28.432Z,43.9
2019-01-12T11:19:18.764Z,43.6
2019-01-12T11:20:08.537Z,43.1
2019-01-12T11:20:58.870Z,42.6
2019-01-12T11:21:48.922Z,42
2019-01-12T11:22:38.703Z,41.7
2019-01-12T11:23:29.035Z,41.4
2019-01-12T11:24:19.092Z,41.3
2019-01-12T11:25:09.147Z,41.1
2019-01-12T11:25:58.656Z,41.2
2019-01-12T11:26:49.272Z,41.3
2019-01-12T11:27:39.329Z,41.3
2019-01-12T11:28:29.115Z,41.3
2019-01-12T11:29:19.154Z,41.1
2019-01-12T11:30:09.494Z,41
2019-01-12T11:30:59.546Z,41
2019-01-12T11:31:48.851Z,41
2019-01-12T11:32:39.669Z,41.1
2019-01-12T11:33:28.966Z,41.1
2019-01-12T11:34:19.302Z,40.9
2019-01-12T11:35:09.358Z,40.8
2019-01-12T11:35:59.411Z,40.6
2019-01-12T11:36:49.193Z,40.6
2019-01-12T11:37:39.541Z,40.6
2019-01-12T11:38:29.051Z,40.7
2019-01-12T11:39:19.661Z,40.9
2019-01-12T11:40:09.424Z,41.2
2019-01-12T11:40:59.757Z,41.6
2019-01-12T11:41:50.296Z,42
2019-01-12T11:42:40.356Z,42.4
2019-01-12T11:43:30.150Z,42.9
2019-01-12T11:44:20.241Z,43.3
2019-01-12T11:45:10.246Z,43.7
2019-01-12T11:46:00.587Z,44.1
2019-01-12T11:46:50.636Z,44.4
2019-01-12T11:47:40.423Z,44.7
2019-01-12T11:48:30.483Z,44.8
2019-01-12T11:49:20.813Z,44.9
2019-01-12T11:50:10.590Z,44.9
2019-01-12T11:51:00.655Z,44.9
2019-01-12T11:51:50.700Z,45
2019-01-12T11:52:41.047Z,45.2
2019-01-12T11:53:30.615Z,45.4
2019-01-12T11:54:21.153Z,45.6
2019-01-12T11:55:11.218Z,45.9
2019-01-12T11:56:01.277Z,46.1
2019-01-12T11:56:51.054Z,46.3
2019-01-12T11:57:40.910Z,46.4
2019-01-12T11:58:32.098Z,46.6
2019-01-12T11:59:21.025Z,46.7
2019-01-12T12:00:11.086Z,46.8
2019-01-12T12:01:00.857Z,46.8
2019-01-12T12:01:51.192Z,46.8
2019-01-12T12:02:41.257Z,46.8
2019-01-12T12:03:31.315Z,46.8
2019-01-12T12:04:21.362Z,46.8
2019-01-12T12:05:11.432Z,46.8
2019-01-12T12:06:01.207Z,46.8
2019-01-12T12:06:51.539Z,46.9
2019-01-12T12:07:41.603Z,47
2019-01-12T12:08:32.134Z,47
2019-01-12T12:09:22.191Z,47.1
2019-01-12T12:10:11.963Z,48.3
2019-01-12T12:11:02.035Z,48.3
2019-01-12T12:11:52.373Z,45.3
2019-01-12T12:12:42.421Z,42.1
2019-01-12T12:13:32.472Z,39.9
2019-01-12T12:14:22.265Z,38.4
2019-01-12T12:15:12.042Z,37.4
2019-01-12T12:16:03.498Z,36.6
2019-01-12T12:16:52.148Z,36.1
2019-01-12T12:17:42.766Z,35.8
2019-01-12T12:18:32.820Z,35.6
2019-01-12T12:19:22.881Z,35.6
2019-01-12T12:20:12.953Z,35.6
2019-01-12T12:21:02.996Z,35.8
2019-01-12T12:21:52.791Z,35.9
2019-01-12T12:22:43.113Z,36.1
2019-01-12T12:23:32.897Z,36.3
2019-01-12T12:24:23.227Z,36.4
2019-01-12T12:25:13.285Z,36.6
2019-01-12T12:26:03.352Z,36.8
2019-01-12T12:26:53.505Z,37
2019-01-12T12:27:43.468Z,37.1
2019-01-12T12:28:33.282Z,37.3
2019-01-12T12:29:23.572Z,37.5
2019-01-12T12:30:13.641Z,37.6
2019-01-12T12:31:03.694Z,37.8
2019-01-12T12:31:53.798Z,38
2019-01-12T12:32:43.537Z,38.2
2019-01-12T12:33:33.314Z,38.4
2019-01-12T12:34:23.922Z,38.6
2019-01-12T12:35:13.994Z,38.7
2019-01-12T12:36:04.045Z,38.8
2019-01-12T12:36:54.110Z,38.8
2019-01-12T12:37:44.167Z,38.9
2019-01-12T12:38:34.217Z,38.9
2019-01-12T12:39:23.990Z,39.1
2019-01-12T12:40:14.335Z,39.3
2019-01-12T12:41:04.402Z,39.4
2019-01-12T12:41:54.517Z,39.6
2019-01-12T12:42:44.519Z,39.8
2019-01-12T12:43:34.586Z,39.9
2019-01-12T12:44:24.662Z,40
2019-01-12T12:45:14.737Z,40.2
2019-01-12T12:46:04.759Z,40.2
2019-01-12T12:46:54.577Z,40.1
2019-01-12T12:47:44.859Z,39.9
2019-01-12T12:48:34.909Z,39.8
2019-01-12T12:49:24.686Z,39.6
2019-01-12T12:50:15.029Z,39.4
2019-01-12T12:51:05.086Z,39.4
2019-01-12T12:51:54.869Z,39.3
2019-01-12T12:52:45.205Z,39.3
2019-01-12T12:53:36.129Z,39.2
2019-01-12T12:54:25.326Z,39.2
2019-01-12T12:55:14.836Z,39.2
2019-01-12T12:56:05.438Z,39.2
2019-01-12T12:56:54.935Z,39.1
2019-01-12T12:57:45.277Z,38.9
2019-01-12T12:58:35.350Z,38.8
2019-01-12T12:59:25.234Z,38.7
2019-01-12T13:00:15.725Z,38.5
2019-01-12T13:01:05.504Z,38.3
2019-01-12T13:01:55.838Z,38.1
2019-01-12T13:02:45.903Z,37.8
2019-01-12T13:03:35.959Z,37.5
2019-01-12T13:04:25.478Z,37.3
2019-01-12T13:05:16.080Z,37.1
2019-01-12T13:06:06.131Z,36.9
2019-01-12T13:06:55.903Z,36.7
2019-01-12T13:07:46.243Z,36.6
2019-01-12T13:08:36.302Z,36.3
2019-01-12T13:09:26.090Z,36.1
2019-01-12T13:10:16.421Z,35.8
2019-01-12T13:11:05.933Z,35.6
2019-01-12T13:11:56.530Z,35.3
2019-01-12T13:12:46.310Z,35.1
2019-01-12T13:13:36.650Z,34.9
2019-01-12T13:14:26.709Z,34.7
2019-01-12T13:15:16.502Z,34.4
2019-01-12T13:16:06.557Z,34.2
2019-01-12T13:16:56.875Z,33.9
2019-01-12T13:17:46.663Z,33.7
2019-01-12T13:18:36.717Z,33.5
2019-01-12T13:19:27.087Z,33.3
2019-01-12T13:20:16.834Z,33.2
2019-01-12T13:21:06.621Z,33
2019-01-12T13:21:57.234Z,32.9
2019-01-12T13:22:47.291Z,32.8
2019-01-12T13:23:37.377Z,32.6
2019-01-12T13:24:27.408Z,32.4
2019-01-12T13:25:17.226Z,32.2
2019-01-12T13:26:07.517Z,31.9
2019-01-12T13:26:57.566Z,31.7
2019-01-12T13:27:47.630Z,31.4
2019-01-12T13:28:37.421Z,31.2
2019-01-12T13:29:27.464Z,31
2019-01-12T13:30:17.530Z,30.8
2019-01-12T13:31:07.589Z,30.5
2019-01-12T13:31:57.663Z,30.3
2019-01-12T13:32:47.969Z,30
2019-01-12T13:33:37.749Z,29.8
2019-01-12T13:34:27.822Z,29.6
2019-01-12T13:35:18.151Z,29.4
2019-01-12T13:36:07.939Z,29.2
2019-01-12T13:36:58.251Z,28.9
2019-01-12T13:37:48.311Z,28.8
2019-01-12T13:38:38.116Z,28.6
2019-01-12T13:39:33.794Z,28.4
2019-01-12T13:40:18.248Z,28.1
2019-01-12T13:41:08.275Z,28
2019-01-12T13:42:48.393Z,27.6
2019-01-12T13:43:38.713Z,27.4
2019-01-12T13:44:27.955Z,27.3
2019-01-12T13:45:18.841Z,27
2019-01-12T13:46:08.615Z,26.8
2019-01-12T13:46:58.666Z,26.6
2019-01-12T13:47:49.005Z,26.4
2019-01-12T13:48:39.061Z,26.3
2019-01-12T13:49:29.128Z,26.1
2019-01-12T13:50:18.907Z,25.8
2019-01-12T13:51:09.233Z,25.6
2019-01-12T13:51:59.027Z,25.3
2019-01-12T13:52:49.365Z,25.1
2019-01-12T13:53:38.855Z,24.9
2019-01-12T13:54:29.495Z,24.8
2019-01-12T13:55:19.259Z,24.5
2019-01-12T13:56:09.302Z,24.3
2019-01-12T13:56:59.367Z,24.1
2019-01-12T13:57:50.187Z,23.9
2019-01-12T13:58:39.750Z,23.6
2019-01-12T13:59:29.537Z,23.4
2019-01-12T14:00:19.609Z,23.2
2019-01-12T14:01:09.926Z,22.9
2019-01-12T14:02:00.007Z,22.7
2019-01-12T14:02:50.042Z,22.5
2019-01-12T14:03:39.817Z,22.3
2019-01-12T14:04:29.879Z,22.1
2019-01-12T14:05:20.262Z,21.9
2019-01-12T14:06:10.272Z,21.8
2019-01-12T14:07:01.844Z,21.6
2019-01-12T14:07:57.862Z,21.4
2019-01-12T14:08:40.600Z,21.2
2019-01-12T14:09:30.509Z,21.1
2019-01-12T14:10:20.282Z,20.8
2019-01-12T14:11:10.364Z,20.7
2019-01-12T14:12:00.190Z,20.4
2019-01-12T14:12:50.254Z,20.3
2019-01-12T14:13:40.031Z,20.1
2019-01-12T14:14:30.561Z,19.9
2019-01-12T14:15:20.631Z,19.7
2019-01-12T14:16:10.691Z,19.4
2019-01-12T14:17:00.735Z,19.2
2019-01-12T14:17:50.796Z,18.9
2019-01-12T14:19:31.193Z,18.4
2019-01-12T14:20:20.980Z,18.2
2019-01-12T14:21:11.306Z,17.9
2019-01-12T14:22:01.359Z,17.6
2019-01-12T14:22:51.422Z,17.4
2019-01-12T14:23:41.188Z,17.1
2019-01-12T14:24:31.535Z,16.8
2019-01-12T14:25:21.328Z,16.5
2019-01-12T14:26:11.655Z,16.3
2019-01-12T14:27:01.706Z,16
2019-01-12T14:27:56.092Z,15.8
2019-01-12T14:28:41.594Z,15.4
2019-01-12T14:29:31.592Z,15.3
2019-01-12T14:30:21.922Z,15
2019-01-12T14:31:11.990Z,14.8
2019-01-12T14:32:01.757Z,14.5
2019-01-12T14:32:52.120Z,14.3
2019-01-12T14:33:42.170Z,14.1
2019-01-12T14:34:31.703Z,13.8
2019-01-12T14:35:22.001Z,13.6
2019-01-12T14:36:12.053Z,13.4
2019-01-12T14:37:02.390Z,13.1
2019-01-12T14:37:52.447Z,12.9
2019-01-12T14:38:42.269Z,12.7
2019-01-12T14:39:32.564Z,12.4
2019-01-12T14:40:22.618Z,12.2
2019-01-12T14:41:12.397Z,11.9
2019-01-12T14:42:02.462Z,11.6
2019-01-12T14:42:52.787Z,11.4
2019-01-12T14:43:42.562Z,11.1
2019-01-12T14:44:31.919Z,10.9
2019-01-12T14:45:22.681Z,10.6
2019-01-12T14:46:12.759Z,10.4
2019-01-12T14:47:03.174Z,10.1
2019-01-12T14:47:53.131Z,9.9
2019-01-12T14:48:43.204Z,9.7
2019-01-12T14:49:33.257Z,9.5
2019-01-12T14:50:23.024Z,9.3
2019-01-12T14:51:13.382Z,9.1
2019-01-12T14:52:02.596Z,8.8
2019-01-12T14:52:53.207Z,8.6
2019-01-12T14:53:43.274Z,8.4
2019-01-12T14:54:33.587Z,8.2
2019-01-12T14:55:23.668Z,8
2019-01-12T14:56:13.149Z,7.8
2019-01-12T14:57:03.766Z,7.6
2019-01-12T14:57:53.975Z,7.4
2019-01-12T14:58:43.986Z,7.2
2019-01-12T14:59:33.673Z,7
2019-01-12T15:00:23.558Z,6.8
2019-01-12T15:01:14.089Z,6.6
2019-01-12T15:02:03.905Z,6.4
2019-01-12T15:02:54.174Z,6.3
2019-01-12T15:03:44.335Z,6.1
2019-01-12T15:04:33.994Z,5.9
2019-01-12T15:05:24.368Z,5.7
2019-01-12T15:06:14.390Z,5.5
2019-01-12T15:07:03.968Z,5.3
2019-01-12T15:07:54.225Z,5.1
2019-01-12T15:08:44.001Z,5
2019-01-12T15:09:34.331Z,4.8
2019-01-12T15:10:23.893Z,4.7
2019-01-12T15:11:14.458Z,4.5
2019-01-12T15:12:04.770Z,4.4
2019-01-12T15:12:54.553Z,4.1
2019-01-12T15:13:44.898Z,4
2019-01-12T15:14:34.953Z,3.9
2019-01-12T15:15:24.732Z,3.7
2019-01-12T15:16:15.061Z,3.6
2019-01-12T15:17:19.497Z,3.4
2019-01-12T15:17:54.892Z,3.3
2019-01-12T15:18:45.229Z,3.1
2019-01-12T15:19:35.287Z,2.9
2019-01-12T15:20:25.358Z,2.8
2019-01-12T15:21:15.114Z,2.6
2019-01-12T15:22:05.472Z,2.5
2019-01-12T15:22:55.511Z,2.3
2019-01-12T15:23:45.570Z,2.2
2019-01-12T15:24:35.621Z,2.1
2019-01-12T15:25:25.678Z,1.9
2019-01-12T15:26:15.456Z,1.8
2019-01-12T15:27:05.796Z,1.6
2019-01-12T15:27:55.844Z,1.5
2019-01-12T15:28:45.633Z,1.4
2019-01-12T15:29:35.963Z,1.3
2019-01-12T15:30:25.750Z,1.2
2019-01-12T15:31:16.080Z,1.1
2019-01-12T15:32:06.134Z,0.9
2019-01-12T15:32:56.201Z,0.8
2019-01-12T15:33:45.461Z,0.7
2019-01-12T15:34:36.300Z,0.6
2019-01-12T15:35:26.361Z,0.4
2019-01-12T15:36:16.140Z,0.4
2019-01-12T15:37:06.462Z,0.3
2019-01-12T15:37:56.259Z,0.1
2019-01-12T15:38:46.335Z,0.1
2019-01-12T15:39:36.647Z,-0.1
2019-01-12T15:40:26.690Z,-0.2
2019-01-12T15:41:16.744Z,-0.3
2019-01-12T15:42:06.527Z,-0.4
2019-01-12T15:42:56.857Z,-0.4
2019-01-12T15:43:46.645Z,-0.6
2019-01-12T15:44:36.975Z,-0.7
2019-01-12T15:45:27.037Z,-0.8
2019-01-12T15:46:17.094Z,-0.8